Time;durP1;ratioP1;P1;durP2;ratioP2;P2;SDS_P1;SDS_P2;PMS_P1;PMS_P2;Temp;Humidity;BMP_temperature;BMP_pressure;BME280_temperature;BME280_humidity;BME280_pressure;Samples;Min_cycle;Max_cycle;Signal;HPM_P1;HPM_P2
2023/01/11 00:01:35;;;;;;;7.13;2.20;;;;;;;8.42;100.00;100565.47;5095571;28;20471;-83
2023/01/11 00:04:00;;;;;;;5.00;2.70;;;;;;;8.52;100.00;100553.44;5078809;28;20032;-83
2023/01/11 00:06:26;;;;;;;5.40;2.60;;;;;;;8.50;100.00;100559.03;5079267;28;20031;-83
2023/01/11 00:08:51;;;;;;;4.25;2.30;;;;;;;8.62;100.00;100550.31;5078794;28;20131;-83
2023/01/11 00:11:16;;;;;;;5.77;2.17;;;;;;;8.60;100.00;100564.88;5078694;28;20042;-83
2023/01/11 00:13:44;;;;;;;4.40;2.40;;;;;;;8.60;100.00;100556.75;5113735;28;20039;-83
2023/01/11 00:16:10;;;;;;;7.38;2.65;;;;;;;8.68;100.00;100554.88;5113909;28;20031;-83
2023/01/11 00:18:36;;;;;;;5.38;2.03;;;;;;;8.70;100.00;100552.81;5095625;28;20476;-83
2023/01/11 00:21:04;;;;;;;4.77;1.90;;;;;;;8.70;100.00;100544.69;5095442;28;20062;-82
2023/01/11 00:23:30;;;;;;;8.00;1.98;;;;;;;8.71;100.00;100554.44;5080643;28;20024;-83
2023/01/11 00:25:56;;;;;;;3.85;1.67;;;;;;;8.72;100.00;100551.53;5083040;28;20039;-83
2023/01/11 00:28:21;;;;;;;3.60;1.60;;;;;;;8.74;100.00;100554.03;5118491;28;20097;-83
2023/01/11 00:30:48;;;;;;;6.17;1.70;;;;;;;8.83;100.00;100551.94;5099640;28;20026;-83
2023/01/11 00:33:13;;;;;;;3.60;1.33;;;;;;;8.82;100.00;100537.59;5117567;28;20326;-83
2023/01/11 00:35:39;;;;;;;4.13;1.38;;;;;;;8.88;100.00;100550.25;5082241;28;20471;-83
2023/01/11 00:38:04;;;;;;;3.83;1.48;;;;;;;8.89;100.00;100541.13;5117566;28;20111;-83
2023/01/11 00:40:29;;;;;;;3.67;1.47;;;;;;;8.84;100.00;100540.09;5117282;28;20052;-83
2023/01/11 00:47:55;;;;;;;4.75;1.73;;;;;;;8.84;100.00;100527.38;5088476;28;20051;-83
2023/01/11 00:48:43;;;;;;;3.13;1.42;;;;;;;8.91;100.00;100530.06;5117165;28;20039;-83
2023/01/11 00:51:11;;;;;;;2.03;1.00;;;;;;;8.97;100.00;100534.63;5117568;28;20429;-83
2023/01/11 00:53:36;;;;;;;5.22;1.20;;;;;;;9.02;100.00;100544.81;5066347;28;20130;-83
2023/01/11 00:56:02;;;;;;;7.60;1.67;;;;;;;8.93;100.00;100528.81;5081714;28;20122;-82
2023/01/11 00:58:27;;;;;;;4.17;1.37;;;;;;;8.92;100.00;100529.88;5082109;28;20122;-82
2023/01/11 01:00:52;;;;;;;5.13;1.77;;;;;;;8.90;100.00;100529.25;5117370;28;20035;-82
2023/01/11 01:03:18;;;;;;;4.80;1.92;;;;;;;8.95;100.00;100517.78;5081823;28;20032;-82
2023/01/11 01:05:43;;;;;;;3.80;2.10;;;;;;;8.86;100.00;100519.91;5098720;28;20542;-83
2023/01/11 01:08:09;;;;;;;5.27;2.37;;;;;;;8.97;100.00;100514.88;5081761;28;20027;-82
2023/01/11 01:10:34;;;;;;;5.60;2.03;;;;;;;8.95;100.00;100526.72;5082108;28;20039;-81
2023/01/11 01:15:43;;;;;;;6.00;1.80;;;;;;;9.02;100.00;100531.28;5117214;28;20108;-82
2023/01/11 01:18:09;;;;;;;5.18;2.00;;;;;;;8.97;100.00;100523.00;5099716;28;20459;-82
2023/01/11 01:20:34;;;;;;;5.72;2.90;;;;;;;9.09;100.00;100519.41;5117007;28;20031;-81
2023/01/11 01:23:00;;;;;;;3.23;2.03;;;;;;;9.04;100.00;100521.09;5098372;28;20039;-81
2023/01/11 01:25:25;;;;;;;3.93;1.83;;;;;;;9.03;100.00;100532.97;5117459;28;20103;-81
2023/01/11 01:27:50;;;;;;;5.47;2.40;;;;;;;9.09;100.00;100529.41;5081336;28;20031;-81
2023/01/11 01:30:16;;;;;;;5.03;2.70;;;;;;;9.12;100.00;100534.38;5116868;28;20111;-80
2023/01/11 01:32:41;;;;;;;3.80;2.30;;;;;;;9.09;100.00;100532.09;5081752;28;20042;-80
2023/01/11 01:35:07;;;;;;;4.67;2.50;;;;;;;9.10;100.00;100531.06;5098064;28;20039;-80
2023/01/11 01:37:33;;;;;;;8.35;2.30;;;;;;;9.08;100.00;100523.16;5098529;28;20032;-80
2023/01/11 01:39:58;;;;;;;5.67;2.70;;;;;;;9.09;100.00;100526.69;5098288;28;20028;-81
2023/01/11 01:42:24;;;;;;;4.53;2.23;;;;;;;9.11;100.00;100511.91;5098492;28;20034;-80
2023/01/11 01:45:15;;;;;;;7.25;2.53;;;;;;;9.12;100.00;100537.94;5081407;28;20035;-80
2023/01/11 01:47:46;;;;;;;2.90;2.08;;;;;;;9.10;100.00;100534.59;5098486;28;20479;-80
2023/01/11 01:50:20;;;;;;;7.95;3.20;;;;;;;9.19;100.00;100527.06;5116263;28;20081;-80
2023/01/11 01:52:53;;;;;;;4.70;1.88;;;;;;;9.20;100.00;100519.78;5098062;28;20042;-80
2023/01/11 01:55:27;;;;;;;5.18;2.75;;;;;;;9.18;100.00;100522.69;5116038;28;20031;-80
2023/01/11 01:57:55;;;;;;;5.63;1.92;;;;;;;9.25;100.00;100519.97;5097667;28;20047;-80
2023/01/11 02:00:20;;;;;;;4.47;2.70;;;;;;;9.24;100.00;100524.56;5116249;28;20028;-80
2023/01/11 02:02:47;;;;;;;3.63;2.15;;;;;;;9.28;100.00;100519.53;5081051;28;20054;-80
2023/01/11 02:05:14;;;;;;;7.50;2.65;;;;;;;9.27;100.00;100521.44;5080720;28;20031;-80
2023/01/11 02:07:43;;;;;;;5.78;2.53;;;;;;;9.31;100.00;100519.09;5098050;28;20027;-80
2023/01/11 02:10:15;;;;;;;5.15;2.55;;;;;;;9.37;100.00;100529.06;5115753;28;20024;-80
2023/01/11 02:12:47;;;;;;;6.45;2.67;;;;;;;9.35;100.00;100527.66;5115627;28;20027;-80
2023/01/11 02:15:13;;;;;;;3.67;2.45;;;;;;;9.36;100.00;100535.56;5097644;28;20036;-80
2023/01/11 02:17:39;;;;;;;4.43;2.58;;;;;;;9.37;100.00;100523.66;5097823;28;20055;-80
2023/01/11 02:20:08;;;;;;;6.47;2.43;;;;;;;9.43;100.00;100525.53;5080643;28;20070;-81
2023/01/11 02:22:44;;;;;;;3.88;2.38;;;;;;;9.40;100.00;100525.09;5115526;28;20131;-81
2023/01/11 02:25:34;;;;;;;6.63;2.80;;;;;;;9.39;100.00;100513.47;5097542;28;20148;-81
2023/01/11 02:28:14;;;;;;;2.83;1.58;;;;;;;9.43;100.00;100520.09;5116008;28;20027;-80
2023/01/11 02:31:02;;;;;;;5.72;1.83;;;;;;;9.44;100.00;100519.03;5115685;28;20062;-81
2023/01/11 02:33:41;;;;;;;5.53;2.20;;;;;;;9.47;100.00;100512.38;5098217;28;20027;-80
2023/01/11 02:36:25;;;;;;;6.78;2.50;;;;;;;9.47;100.00;100521.31;5097291;28;20375;-80
2023/01/11 02:38:55;;;;;;;3.78;2.05;;;;;;;9.54;100.00;100520.47;5096914;28;20050;-86
2023/01/11 02:45:08;;;;;;;3.08;1.48;;;;;;;9.57;100.00;100511.91;5029152;28;20480;-80
2023/01/11 02:47:53;;;;;;;4.05;1.83;;;;;;;9.68;100.00;100503.06;5077004;28;20109;-80
2023/01/11 02:50:21;;;;;;;3.65;1.80;;;;;;;9.64;100.00;100502.69;5094947;28;20031;-80
2023/01/11 02:52:51;;;;;;;4.55;1.77;;;;;;;9.59;100.00;100507.91;5077220;28;20044;-80
2023/01/11 02:55:24;;;;;;;2.63;1.55;;;;;;;9.68;100.00;100499.53;5076149;28;20520;-80
2023/01/11 02:57:54;;;;;;;3.95;1.85;;;;;;;9.65;100.00;100512.50;5077160;28;20039;-80
2023/01/11 03:00:20;;;;;;;3.63;1.55;;;;;;;9.70;100.00;100502.84;5077407;28;20039;-80
2023/01/11 03:02:46;;;;;;;3.25;1.67;;;;;;;9.74;100.00;100501.38;5059549;28;20089;-80
2023/01/11 03:05:13;;;;;;;5.23;1.87;;;;;;;9.70;100.00;100498.28;5094919;28;20036;-80
2023/01/11 03:07:50;;;;;;;4.25;1.90;;;;;;;9.70;100.00;100519.97;5076227;28;20043;-80
2023/01/11 03:10:27;;;;;;;4.80;2.17;;;;;;;9.72;100.00;100495.34;5094550;28;20067;-80
2023/01/11 03:13:10;;;;;;;7.38;1.48;;;;;;;9.77;100.00;100485.53;5076481;28;20059;-80
2023/01/11 03:15:54;;;;;;;4.40;1.55;;;;;;;9.75;100.00;100486.78;5076757;28;20035;-81
2023/01/11 03:18:47;;;;;;;3.03;1.10;;;;;;;9.77;100.00;100490.09;5094298;28;20028;-81
2023/01/11 03:21:16;;;;;;;5.32;1.50;;;;;;;9.76;100.00;100497.41;5076546;28;20123;-81
2023/01/11 03:24:18;;;;;;;1.50;1.25;;;;;;;9.76;100.00;100492.00;5076673;28;20038;-81
2023/01/11 03:27:16;;;;;;;3.10;1.55;;;;;;;9.78;100.00;100495.31;5094500;28;20024;-81
2023/01/11 03:29:53;;;;;;;3.33;1.38;;;;;;;9.78;100.00;100491.78;5075942;28;20127;-81
2023/01/11 03:32:47;;;;;;;7.55;1.45;;;;;;;9.77;100.00;100498.22;5076770;28;20024;-81
2023/01/11 03:35:54;;;;;;;3.33;1.80;;;;;;;9.80;100.00;100497.78;5075611;28;20028;-81
2023/01/11 03:38:27;;;;;;;2.25;1.45;;;;;;;9.82;100.00;100495.72;5094112;28;20069;-81
2023/01/11 03:40:59;;;;;;;2.20;1.30;;;;;;;9.85;100.00;100492.56;5083638;28;20143;-81
2023/01/11 03:43:28;;;;;;;4.82;1.45;;;;;;;9.86;100.00;100496.09;5114127;28;20111;-80
2023/01/11 03:46:01;;;;;;;6.28;1.30;;;;;;;9.84;100.00;100494.41;5079397;28;20089;-85
2023/01/11 03:48:31;;;;;;;5.03;1.50;;;;;;;9.84;100.00;100496.31;5096365;28;20027;-81
2023/01/11 03:51:00;;;;;;;2.47;1.35;;;;;;;9.84;100.00;100499.03;5114040;28;20486;-81
2023/01/11 03:53:28;;;;;;;2.63;1.35;;;;;;;9.84;100.00;100490.88;5096055;28;20023;-81
2023/01/11 03:55:57;;;;;;;2.22;1.30;;;;;;;9.86;100.00;100491.50;5095846;28;20028;-81
2023/01/11 03:58:26;;;;;;;3.60;1.25;;;;;;;9.92;100.00;100492.50;5095074;28;20463;-81
2023/01/11 04:00:54;;;;;;;2.75;1.65;;;;;;;9.87;100.00;100495.88;5078933;28;20086;-81
2023/01/11 04:03:20;;;;;;;3.75;1.80;;;;;;;9.89;100.00;100503.78;5114065;28;20035;-81
2023/01/11 04:05:51;;;;;;;3.70;2.20;;;;;;;9.91;100.00;100494.38;5095786;28;20383;-81
2023/01/11 04:08:17;;;;;;;4.35;1.95;;;;;;;9.92;100.00;100506.03;5096152;28;20023;-81
2023/01/11 04:10:42;;;;;;;4.33;2.23;;;;;;;9.92;100.00;100500.63;5095912;28;20505;-81
2023/01/11 04:13:08;;;;;;;5.85;2.70;;;;;;;9.94;100.00;100510.19;5079256;28;20028;-81
2023/01/11 04:15:34;;;;;;;5.57;2.93;;;;;;;9.93;100.00;100507.72;5078785;28;20024;-81
2023/01/11 04:18:03;;;;;;;5.97;3.53;;;;;;;9.95;100.00;100519.16;5078829;28;20480;-81
2023/01/11 04:20:34;;;;;;;10.90;3.90;;;;;;;9.97;100.00;100528.72;5095285;28;20066;-81
2023/01/11 04:22:59;;;;;;;5.63;3.13;;;;;;;9.99;100.00;100514.97;5095594;28;20043;-81
2023/01/11 04:25:25;;;;;;;7.30;3.85;;;;;;;10.03;100.00;100507.25;5078880;28;20428;-81
2023/01/11 04:27:50;;;;;;;7.25;3.35;;;;;;;10.04;100.00;100525.13;5096488;28;20042;-81
2023/01/11 04:30:16;;;;;;;4.57;2.27;;;;;;;10.08;100.00;100527.19;5095439;28;20510;-81
2023/01/11 04:32:41;;;;;;;6.15;3.20;;;;;;;10.07;100.00;100528.25;5095224;28;20475;-81
2023/01/11 04:35:07;;;;;;;5.07;3.30;;;;;;;10.01;100.00;100515.59;5078720;28;20047;-81
2023/01/11 04:37:33;;;;;;;5.13;3.40;;;;;;;10.06;100.00;100528.47;5095186;28;20058;-81
2023/01/11 04:39:58;;;;;;;4.78;3.08;;;;;;;10.07;100.00;100533.69;5079298;28;20289;-81
2023/01/11 04:42:24;;;;;;;8.20;3.30;;;;;;;10.04;100.00;100530.56;5113558;28;20452;-81
2023/01/11 04:44:51;;;;;;;6.85;3.15;;;;;;;10.04;100.00;100531.41;5079462;28;20047;-81
2023/01/11 04:47:19;;;;;;;5.15;3.60;;;;;;;10.05;100.00;100545.78;5078806;28;20023;-81
2023/01/11 04:49:45;;;;;;;6.03;3.43;;;;;;;10.06;100.00;100547.44;5095764;28;20123;-81
2023/01/11 04:52:16;;;;;;;6.70;3.42;;;;;;;10.06;100.00;100555.59;5079434;28;20119;-81
2023/01/11 04:54:42;;;;;;;4.55;2.10;;;;;;;10.07;100.00;100570.78;5094866;28;20084;-81
2023/01/11 04:57:14;;;;;;;4.82;2.50;;;;;;;10.07;100.00;100541.81;5113667;28;20455;-81
2023/01/11 04:59:40;;;;;;;4.47;2.47;;;;;;;10.08;100.00;100543.44;5096297;28;20031;-81
2023/01/11 05:02:06;;;;;;;4.40;2.63;;;;;;;10.09;100.00;100541.59;5095005;28;20036;-80
2023/01/11 05:04:31;;;;;;;5.23;2.50;;;;;;;10.05;100.00;100537.66;5095019;28;20530;-80
2023/01/11 05:06:57;;;;;;;4.15;2.20;;;;;;;10.06;100.00;100544.75;5095349;28;20395;-81
2023/01/11 05:09:22;;;;;;;5.50;1.95;;;;;;;10.03;100.00;100545.19;5095031;28;20473;-81
2023/01/11 05:11:48;;;;;;;4.10;2.00;;;;;;;10.04;100.00;100544.97;5081969;28;20395;-80
2023/01/11 05:14:15;;;;;;;4.78;1.88;;;;;;;10.00;100.00;100543.72;5082093;28;20024;-81
2023/01/11 05:16:41;;;;;;;2.97;1.80;;;;;;;10.08;100.00;100548.06;5117056;28;20581;-81
2023/01/11 05:19:09;;;;;;;3.67;1.98;;;;;;;10.01;100.00;100554.34;5116726;28;20024;-81
2023/01/11 05:21:37;;;;;;;4.05;2.25;;;;;;;9.99;100.00;100564.59;5098628;28;20061;-80
2023/01/11 05:24:05;;;;;;;4.68;2.70;;;;;;;10.00;100.00;100574.38;5098649;28;20042;-81
2023/01/11 05:26:34;;;;;;;9.18;3.70;;;;;;;10.03;100.00;100570.41;5098480;28;20047;-81
2023/01/11 05:29:01;;;;;;;8.00;3.72;;;;;;;9.98;100.00;100571.06;5098617;28;20115;-81
2023/01/11 05:31:27;;;;;;;8.70;4.10;;;;;;;9.94;100.00;100566.28;5117021;28;20027;-82
2023/01/11 05:33:55;;;;;;;11.32;5.20;;;;;;;9.95;100.00;100573.34;5081649;28;20034;-81
2023/01/11 05:36:22;;;;;;;15.48;5.55;;;;;;;9.91;100.00;100567.56;5098222;28;20035;-81
2023/01/11 05:38:49;;;;;;;16.88;6.20;;;;;;;9.86;100.00;100567.38;5098582;28;20040;-81
2023/01/11 05:41:20;;;;;;;14.57;6.90;;;;;;;9.86;100.00;100578.19;5086569;28;20054;-82
2023/01/11 05:46:33;;;;;;;20.75;7.57;;;;;;;9.81;100.00;100575.31;5096629;28;20094;-82
2023/01/11 05:48:59;;;;;;;16.30;7.07;;;;;;;9.80;100.00;100579.94;5095839;28;20082;-82
2023/01/11 05:51:26;;;;;;;21.40;7.13;;;;;;;9.78;100.00;100582.00;5095678;28;20028;-82
2023/01/11 05:53:52;;;;;;;21.92;7.40;;;;;;;9.78;100.00;100576.59;5095597;28;20040;-82
2023/01/11 05:56:18;;;;;;;21.90;7.17;;;;;;;9.76;100.00;100573.28;5060665;28;20032;-82
2023/01/11 05:58:48;;;;;;;19.00;7.90;;;;;;;9.77;100.00;100587.63;5095947;28;20078;-82
2023/01/11 06:01:14;;;;;;;26.58;8.52;;;;;;;9.63;100.00;100584.19;5077665;28;20050;-82
2023/01/11 06:03:40;;;;;;;13.75;4.38;;;;;;;9.44;100.00;100597.56;5077600;28;20122;-81
2023/01/11 06:06:06;;;;;;;17.77;4.17;;;;;;;9.26;100.00;100603.69;5095473;28;20114;-81
2023/01/11 06:08:31;;;;;;;18.55;4.40;;;;;;;9.18;100.00;100606.59;5060880;28;20154;-81
2023/01/11 06:10:57;;;;;;;17.43;4.10;;;;;;;9.10;100.00;100604.97;5077369;28;20028;-82
2023/01/11 06:13:26;;;;;;;26.67;3.88;;;;;;;9.05;100.00;100603.94;5060414;28;20095;-82
2023/01/11 06:16:06;;;;;;;26.30;4.00;;;;;;;8.98;100.00;100600.44;5045090;28;20043;-82
2023/01/11 06:18:37;;;;;;;22.00;2.97;;;;;;;8.91;100.00;100628.31;5095566;28;20031;-83
2023/01/11 06:21:03;;;;;;;26.77;3.30;;;;;;;8.87;100.00;100621.66;5077095;28;20035;-84
2023/01/11 06:23:31;;;;;;;27.13;3.95;;;;;;;8.80;100.00;100620.00;5060146;28;20028;-84
2023/01/11 06:26:01;;;;;;;20.27;3.20;;;;;;;8.80;100.00;100620.84;5076929;28;20115;-84
2023/01/11 06:28:26;;;;;;;23.92;3.72;;;;;;;8.73;100.00;100622.72;5077049;28;20023;-85
2023/01/11 06:30:53;;;;;;;25.20;4.00;;;;;;;8.68;100.00;100619.78;5095202;28;20383;-82
2023/01/11 06:33:19;;;;;;;25.92;4.65;;;;;;;8.66;100.00;100627.28;5076688;28;20047;-83
2023/01/11 06:35:45;;;;;;;26.48;3.35;;;;;;;8.62;100.00;100631.44;5060504;28;20448;-83
2023/01/11 06:38:13;;;;;;;20.38;3.60;;;;;;;8.59;100.00;100647.06;5094811;28;20043;-83
2023/01/11 06:40:42;;;;;;;22.27;3.45;;;;;;;8.56;100.00;100654.72;5100970;28;20077;-84
2023/01/11 06:43:08;;;;;;;29.20;3.15;;;;;;;8.59;100.00;100662.44;5096918;28;20024;-83
2023/01/11 06:45:37;;;;;;;33.77;3.20;;;;;;;8.57;100.00;100656.41;5096569;28;20119;-83
2023/01/11 06:48:03;;;;;;;28.77;3.35;;;;;;;8.55;100.00;100653.91;5096581;28;20032;-84
2023/01/11 06:50:29;;;;;;;24.50;3.30;;;;;;;8.54;100.00;100663.06;5097044;28;20085;-83
2023/01/11 06:52:56;;;;;;;23.73;4.07;;;;;;;8.54;100.00;100691.97;5096736;28;20027;-83
2023/01/11 06:55:23;;;;;;;30.88;4.40;;;;;;;8.55;100.00;100694.47;5114793;28;20024;-83
2023/01/11 06:57:49;;;;;;;31.00;4.53;;;;;;;8.55;100.00;100691.78;5097058;28;20047;-84
2023/01/11 07:00:16;;;;;;;30.98;3.60;;;;;;;8.59;100.00;100690.31;5079796;28;20472;-85
2023/01/11 07:02:44;;;;;;;36.43;4.83;;;;;;;8.51;100.00;100682.41;5079582;28;20055;-85
2023/01/11 07:05:11;;;;;;;33.25;4.28;;;;;;;8.49;100.00;100681.78;5096537;28;20030;-84
2023/01/11 07:07:37;;;;;;;21.95;3.47;;;;;;;8.49;100.00;100673.69;5114704;28;20028;-84
2023/01/11 07:10:05;;;;;;;31.58;3.78;;;;;;;8.48;100.00;100701.75;5096146;28;20106;-84
2023/01/11 07:12:30;;;;;;;26.10;3.60;;;;;;;8.47;100.00;100696.53;5079633;28;20035;-83
2023/01/11 07:14:56;;;;;;;29.97;3.67;;;;;;;8.48;100.00;100693.63;5079221;28;20122;-84
2023/01/11 07:17:21;;;;;;;29.13;3.97;;;;;;;8.53;100.00;100707.38;5078968;28;20032;-84
2023/01/11 07:19:47;;;;;;;29.77;3.80;;;;;;;8.48;100.00;100717.97;5113883;28;20043;-84
2023/01/11 07:22:13;;;;;;;25.47;3.83;;;;;;;8.49;100.00;100729.59;5078657;28;20445;-84
2023/01/11 07:24:39;;;;;;;27.17;3.25;;;;;;;8.44;100.00;100727.50;5095883;28;20027;-84
2023/01/11 07:27:04;;;;;;;40.17;3.93;;;;;;;8.47;100.00;100729.00;5096093;28;20356;-84
2023/01/11 07:29:30;;;;;;;33.53;3.85;;;;;;;8.37;100.00;100729.34;5095732;28;20463;-84
2023/01/11 07:31:55;;;;;;;28.93;3.43;;;;;;;8.34;100.00;100744.13;5095984;28;20036;-84
2023/01/11 07:34:20;;;;;;;30.10;3.60;;;;;;;8.29;100.00;100724.13;5095336;28;20083;-84
2023/01/11 07:36:46;;;;;;;39.40;4.00;;;;;;;8.29;100.00;100735.75;5078922;28;20027;-84
2023/01/11 07:39:11;;;;;;;33.08;4.93;;;;;;;8.25;100.00;100746.16;5078787;28;20032;-85
2023/01/11 07:44:21;;;;;;;23.80;3.10;;;;;;;8.21;100.00;100750.28;5114265;28;20070;-84
2023/01/11 07:46:46;;;;;;;28.00;3.23;;;;;;;8.16;100.00;100746.53;5096066;28;20063;-84
2023/01/11 07:49:12;;;;;;;27.47;3.37;;;;;;;8.14;100.00;100754.03;5095519;28;20076;-84
2023/01/11 07:51:37;;;;;;;27.33;3.20;;;;;;;8.13;100.00;100765.84;5095949;28;20023;-84
2023/01/11 07:54:03;;;;;;;28.15;3.10;;;;;;;8.10;100.00;100777.06;5113514;28;20439;-84
2023/01/11 07:56:31;;;;;;;23.97;3.40;;;;;;;8.06;100.00;100785.56;5113846;28;20055;-84
2023/01/11 07:58:57;;;;;;;25.27;3.63;;;;;;;8.02;100.00;100783.47;5078840;28;20074;-84
2023/01/11 08:01:25;;;;;;;28.57;3.23;;;;;;;8.02;100.00;100788.88;5096282;28;20031;-84
2023/01/11 08:03:51;;;;;;;30.83;3.22;;;;;;;7.97;100.00;100781.38;5095446;28;20023;-84
2023/01/11 08:06:16;;;;;;;26.77;2.93;;;;;;;7.98;100.00;100788.44;5095629;28;20031;-84
2023/01/11 08:08:43;;;;;;;24.47;2.27;;;;;;;7.96;100.00;100795.06;5078999;28;20078;-83
2023/01/11 08:16:39;;;;;;;23.70;2.78;;;;;;;7.88;100.00;100813.13;5098787;28;20555;-83
2023/01/11 08:19:05;;;;;;;19.10;2.37;;;;;;;7.85;100.00;100821.63;5113548;28;20102;-83
2023/01/11 08:21:32;;;;;;;26.73;3.20;;;;;;;7.84;100.00;100825.34;5096051;28;20376;-84
2023/01/11 08:23:58;;;;;;;30.90;4.07;;;;;;;7.82;100.00;100835.50;5062527;28;20031;-84
2023/01/11 08:26:26;;;;;;;28.88;3.33;;;;;;;7.79;100.00;100865.63;5095788;28;20463;-83
2023/01/11 08:28:53;;;;;;;23.88;2.45;;;;;;;7.77;100.00;100856.06;5095280;28;20483;-84
2023/01/11 08:31:21;;;;;;;30.90;3.28;;;;;;;7.75;100.00;100856.25;5095112;28;20412;-83
2023/01/11 08:33:50;;;;;;;33.60;3.60;;;;;;;7.77;100.00;100867.69;5095671;28;20020;-83
2023/01/11 08:36:16;;;;;;;25.92;2.63;;;;;;;7.73;100.00;100869.09;5095402;28;20027;-83
2023/01/11 08:38:43;;;;;;;26.50;2.40;;;;;;;7.70;100.00;100875.72;5078549;28;20398;-84
2023/01/11 08:41:11;;;;;;;24.88;2.78;;;;;;;7.70;100.00;100873.03;5105236;28;20051;-84
2023/01/11 08:43:40;;;;;;;24.90;2.53;;;;;;;7.68;100.00;100864.28;5078313;28;20155;-85
2023/01/11 08:46:07;;;;;;;28.80;3.22;;;;;;;7.62;100.00;100870.47;5117336;28;20439;-85
2023/01/11 08:48:35;;;;;;;21.33;2.50;;;;;;;7.61;100.00;100886.88;5099025;28;20039;-85
2023/01/11 08:51:02;;;;;;;27.45;2.80;;;;;;;7.57;100.00;100886.41;5099029;28;20137;-85
2023/01/11 08:53:29;;;;;;;18.35;2.50;;;;;;;7.55;100.00;100886.63;5117029;28;20034;-85
2023/01/11 08:55:58;;;;;;;35.93;3.33;;;;;;;7.58;100.00;100901.59;5096919;28;20462;-85
2023/01/11 08:58:24;;;;;;;20.95;2.17;;;;;;;7.50;100.00;100889.06;5099302;28;20416;-85
2023/01/11 09:00:52;;;;;;;24.08;3.33;;;;;;;7.49;100.00;100900.06;5098626;28;20028;-85
2023/01/11 09:03:20;;;;;;;20.85;2.90;;;;;;;7.55;100.00;100908.22;5098714;28;20080;-84
2023/01/11 09:05:48;;;;;;;22.95;2.55;;;;;;;7.52;100.00;100915.88;5099277;28;20044;-88
2023/01/11 09:08:14;;;;;;;23.00;2.50;;;;;;;7.45;100.00;100917.69;5099298;28;20024;-84
2023/01/11 09:10:47;;;;;;;19.08;1.88;;;;;;;7.43;100.00;100911.66;5098717;28;20030;-84
2023/01/11 09:13:13;;;;;;;27.30;3.05;;;;;;;7.44;100.00;100913.31;5099381;28;20028;-85
2023/01/11 09:15:38;;;;;;;14.55;2.22;;;;;;;7.40;100.00;100920.09;5081737;28;20379;-85
2023/01/11 09:18:04;;;;;;;24.67;2.47;;;;;;;7.35;100.00;100924.25;5081477;28;20031;-84
2023/01/11 09:20:29;;;;;;;21.55;2.53;;;;;;;7.41;100.00;100930.75;5098483;28;20486;-84
2023/01/11 09:22:55;;;;;;;25.50;2.60;;;;;;;7.38;100.00;100928.41;5098294;28;20183;-85
2023/01/11 09:25:21;;;;;;;25.65;3.00;;;;;;;7.37;100.00;100918.66;5098170;28;20051;-85
2023/01/11 09:27:49;;;;;;;23.87;2.03;;;;;;;7.35;100.00;100929.66;5081945;28;20035;-84
2023/01/11 09:30:21;;;;;;;23.15;3.08;;;;;;;7.33;100.00;100937.06;5098366;28;20045;-84
2023/01/11 09:32:50;;;;;;;26.58;2.85;;;;;;;7.30;100.00;100931.25;5098336;28;20023;-84
2023/01/11 09:35:16;;;;;;;18.92;2.65;;;;;;;7.27;100.00;100937.03;5098898;28;20030;-85
2023/01/11 09:37:56;;;;;;;22.37;2.23;;;;;;;7.27;100.00;100945.94;5097948;28;20084;-84
2023/01/11 09:41:00;;;;;;;23.42;2.13;;;;;;;7.32;100.00;100942.66;5115952;28;20047;-85
2023/01/11 09:43:30;;;;;;;24.23;2.53;;;;;;;7.36;100.00;100939.38;5077158;28;20039;-85
2023/01/11 09:46:03;;;;;;;20.45;2.20;;;;;;;7.37;100.00;100948.34;5116132;28;20073;-85
2023/01/11 09:48:38;;;;;;;20.92;2.55;;;;;;;7.40;100.00;100953.34;5098391;28;20024;-85
2023/01/11 09:51:04;;;;;;;16.70;2.23;;;;;;;7.38;100.00;100948.16;5097938;28;20088;-85
2023/01/11 09:53:37;;;;;;;12.90;2.28;;;;;;;7.38;100.00;100950.84;5098192;28;20119;-85
2023/01/11 09:56:11;;;;;;;22.25;2.35;;;;;;;7.38;100.00;100958.09;5097344;28;20507;-85
2023/01/11 09:59:10;;;;;;;27.38;2.58;;;;;;;7.42;100.00;100972.06;5097878;28;20027;-85
2023/01/11 10:02:04;;;;;;;17.65;2.22;;;;;;;7.47;100.00;100970.47;5098159;28;20024;-85
2023/01/11 10:05:08;;;;;;;27.33;2.40;;;;;;;7.52;100.00;100954.50;5098064;28;20372;-85
2023/01/11 10:07:48;;;;;;;18.98;2.95;;;;;;;7.55;100.00;100956.81;5098002;28;20036;-84
2023/01/11 10:10:42;;;;;;;21.08;2.90;;;;;;;7.68;100.00;100968.78;5115543;28;20058;-85
2023/01/11 10:13:25;;;;;;;20.05;2.50;;;;;;;7.71;100.00;100974.63;5097424;28;20035;-85
2023/01/11 10:16:25;;;;;;;19.13;2.50;;;;;;;7.83;100.00;100990.34;5097022;28;20056;-84
2023/01/11 10:19:18;;;;;;;24.23;2.83;;;;;;;7.97;100.00;100972.38;5098129;28;20023;-84
2023/01/11 10:21:57;;;;;;;18.38;1.88;;;;;;;7.97;100.00;100972.38;5097883;28;20032;-84
2023/01/11 10:24:34;;;;;;;18.17;2.45;;;;;;;8.11;100.00;100974.16;5097492;28;20532;-84
2023/01/11 10:27:07;;;;;;;17.60;2.70;;;;;;;8.16;100.00;100962.75;5097616;28;20045;-84
2023/01/11 10:29:58;;;;;;;24.40;2.50;;;;;;;8.26;100.00;100976.75;5097572;28;20458;-84
2023/01/11 10:32:56;;;;;;;13.80;2.40;;;;;;;8.25;100.00;100972.38;5115500;28;20474;-84
2023/01/11 10:35:46;;;;;;;16.42;2.28;;;;;;;8.27;100.00;100975.72;5114901;28;20035;-84
2023/01/11 10:38:58;;;;;;;23.25;2.50;;;;;;;8.32;100.00;100997.59;5096746;28;20046;-83
2023/01/11 10:41:47;;;;;;;21.17;2.95;;;;;;;8.30;100.00;100983.44;5070710;28;20078;-84
2023/01/11 10:44:46;;;;;;;18.30;2.88;;;;;;;8.40;100.00;100989.34;5115025;28;20027;-84
2023/01/11 10:47:18;;;;;;;16.23;2.67;;;;;;;8.38;100.00;100993.25;5097119;28;20027;-84
2023/01/11 10:50:01;;;;;;;21.50;3.00;;;;;;;8.39;100.00;100978.72;5097137;28;20023;-84
2023/01/11 10:52:43;;;;;;;20.50;3.13;;;;;;;8.38;100.00;100985.97;5097271;28;20031;-84
2023/01/11 10:55:14;;;;;;;21.67;2.85;;;;;;;8.42;100.00;100975.63;5097556;28;20048;-84
2023/01/11 10:57:51;;;;;;;18.63;2.50;;;;;;;8.47;100.00;100975.88;5097494;28;20040;-84
2023/01/11 11:00:37;;;;;;;21.83;3.20;;;;;;;8.47;100.00;100978.56;5115177;28;20015;-83
2023/01/11 11:03:30;;;;;;;19.25;3.05;;;;;;;8.49;100.00;100971.13;5097529;28;20045;-84
2023/01/11 11:06:16;;;;;;;17.45;2.20;;;;;;;8.58;100.00;100977.22;5096832;28;20081;-84
2023/01/11 11:08:51;;;;;;;21.13;2.88;;;;;;;8.65;100.00;100977.22;5114653;28;20031;-84
2023/01/11 11:11:31;;;;;;;21.00;2.38;;;;;;;8.69;100.00;100979.34;5115100;28;20060;-84
2023/01/11 11:14:08;;;;;;;13.20;2.30;;;;;;;8.76;100.00;100991.03;5096647;28;20031;-84
2023/01/11 11:16:53;;;;;;;19.02;2.67;;;;;;;8.89;100.00;100982.16;5096092;28;20035;-84
2023/01/11 11:19:25;;;;;;;15.30;2.38;;;;;;;9.03;100.00;100999.28;5089565;28;20039;-84
2023/01/11 11:21:54;;;;;;;20.25;2.67;;;;;;;9.05;100.00;100977.41;5114857;28;20031;-84
2023/01/11 11:24:36;;;;;;;17.42;2.35;;;;;;;9.19;100.00;100971.03;5079556;28;20084;-84
2023/01/11 11:27:25;;;;;;;19.33;2.30;;;;;;;9.34;100.00;100975.44;5097050;28;20214;-84
2023/01/11 11:29:54;;;;;;;18.55;2.58;;;;;;;9.45;100.00;100974.88;5096008;28;20027;-84
2023/01/11 11:32:31;;;;;;;13.43;2.42;;;;;;;9.51;100.00;100974.03;5095985;28;20092;-84
2023/01/11 11:34:57;;;;;;;15.45;2.78;;;;;;;9.64;100.00;100976.75;5096604;28;20094;-84
2023/01/11 11:37:26;;;;;;;19.15;2.30;;;;;;;9.64;100.00;100984.88;5096071;28;20032;-84
2023/01/11 11:39:54;;;;;;;16.03;2.27;;;;;;;9.69;100.00;100989.69;5096336;28;20043;-84
2023/01/11 11:42:21;;;;;;;21.88;2.47;;;;;;;9.89;100.00;100987.00;5095688;28;20047;-84
2023/01/11 11:45:07;;;;;;;20.05;2.97;;;;;;;9.97;100.00;101004.94;5114159;28;20035;-84
2023/01/11 11:47:33;;;;;;;17.67;2.30;;;;;;;10.12;100.00;101000.13;5113875;28;20026;-84
2023/01/11 11:50:17;;;;;;;11.50;1.70;;;;;;;10.34;100.00;100995.38;5095855;28;20463;-84
2023/01/11 11:52:48;;;;;;;13.57;2.03;;;;;;;11.11;97.59;100999.34;5095340;28;20040;-84
2023/01/11 11:55:21;;;;;;;16.50;2.63;;;;;;;12.21;89.37;100993.66;5114631;28;20023;-84
2023/01/11 11:57:46;;;;;;;23.63;2.92;;;;;;;12.06;85.44;101001.31;5095770;28;20034;-84